Hellespont Progress — V7JO8 — position and weather

sailwx.info

Track history (hours):
 
Tides and Currents Weather Stations Pressure Air Temp Water Temp Dewpoint Dewpoint Depression Visibility Wind Speed Wind Dir Waves Ship Positions

Hellespont Progress

Last reported at 2017-Sep-19 18:19 UTC. Time now 2017-Sep-19 18:37 UTC.
Position N 38°44' W 074°59'.

Length 228 m; draft 11.3 m.

Type: Tanker. MMSI: 538090209.

Date/timePositionNaut miles runAvg speedWind from/ knotsBaromVisibWave heightAir tempDewpointWater temp
2017-Sep-19 18:19N 38°44' W 074°59'4 9.9
2017-Sep-19 17:56N 38°47' W 075°03'610.1
2017-Sep-19 17:19N 38°53' W 075°05'413.0
2017-Sep-19 17:00N 38°57' W 075°07'612.5
2017-Sep-19 16:30N 39°02' W 075°10'510.7
2017-Sep-19 16:00N 39°07' W 075°13'611.1
2017-Sep-19 15:30N 39°12' W 075°17'510.3
2017-Sep-19 15:00N 39°16' W 075°20'5 9.7
2017-Sep-19 14:30N 39°20' W 075°25'5 9.3
2017-Sep-19 14:00N 39°23' W 075°29'5 9.0
2017-Sep-19 13:30N 39°26' W 075°32'4 8.2
2017-Sep-19 13:00N 39°30' W 075°33'4 8.4
2017-Sep-19 12:30N 39°35' W 075°33'4 7.6
2017-Sep-19 12:01N 39°38' W 075°34'4 8.5
2017-Sep-19 11:30N 39°42' W 075°31'4 8.7
2017-Sep-19 11:01N 39°46' W 075°29'4 7.0
2017-Sep-19 10:31N 39°48' W 075°25'1 2.6
2017-Sep-19 09:59N 39°49' W 075°24'0 0.1
2017-Sep-19 09:29N 39°49' W 075°24'0 0.0
2017-Sep-19 08:59N 39°49' W 075°24'0 0.0
2017-Sep-19 08:29N 39°49' W 075°24'0 0.1
2017-Sep-19 07:59N 39°49' W 075°24'0 0.0
2017-Sep-19 07:29N 39°49' W 075°24'0 0.1
2017-Sep-19 06:59N 39°49' W 075°24'0 0.1
2017-Sep-19 06:26N 39°49' W 075°24'0 0.3
2017-Sep-19 05:59N 39°49' W 075°24'0 0.4
2017-Sep-19 05:29N 39°49' W 075°23'0 0.1
2017-Sep-19 04:59N 39°49' W 075°23'0 0.0
2017-Sep-19 04:29N 39°49' W 075°23'0 0.0
2017-Sep-19 03:59N 39°49' W 075°23'0 0.0
2017-Sep-19 03:29N 39°49' W 075°23'0 0.0
2017-Sep-19 02:59N 39°49' W 075°23'0 0.0
2017-Sep-19 02:29N 39°49' W 075°23'0 0.0
2017-Sep-19 01:59N 39°49' W 075°23'0 0.1
2017-Sep-19 01:29N 39°49' W 075°23'0 0.0
2017-Sep-19 00:59N 39°49' W 075°23'0 0.3
2017-Sep-19 00:29N 39°49' W 075°24'0 0.4
2017-Sep-18 23:59N 39°49' W 075°24'0 0.2
2017-Sep-18 23:29N 39°49' W 075°24'0 0.0
2017-Sep-18 22:59N 39°49' W 075°24'0 0.8
2017-Sep-18 22:30N 39°49' W 075°23'4 7.8
2017-Sep-18 22:01N 39°51' W 075°19'4 8.1
2017-Sep-18 21:31N 39°52' W 075°14'0 0.1
2017-Sep-18 21:00N 39°52' W 075°14'0 0.0
2017-Sep-18 20:30N 39°52' W 075°14'0 0.0
2017-Sep-18 20:00N 39°52' W 075°14'0 0.0
2017-Sep-18 19:30N 39°52' W 075°14'0 0.0
2017-Sep-18 19:00N 39°52' W 075°14'0 0.1
2017-Sep-18 18:30N 39°52' W 075°14'0 0.5
2017-Sep-18 18:00N 39°52' W 075°13'0 0.1
2017-Sep-18 17:30N 39°52' W 075°13'0 0.0
2017-Sep-18 17:00N 39°52' W 075°13'0 0.0
2017-Sep-18 16:30N 39°52' W 075°13'0 0.0
2017-Sep-18 16:00N 39°52' W 075°13'0 0.1
2017-Sep-18 15:30N 39°52' W 075°13'0 0.0
2017-Sep-18 15:00N 39°52' W 075°13'0 0.0
2017-Sep-18 14:30N 39°52' W 075°13'0 0.0
2017-Sep-18 14:00N 39°52' W 075°13'0 0.0
2017-Sep-18 13:30N 39°52' W 075°13'0 0.2
2017-Sep-18 13:00N 39°52' W 075°13'0 0.5
2017-Sep-18 12:30N 39°51' W 075°14'0 0.1
2017-Sep-18 12:00N 39°52' W 075°14'0 0.1
2017-Sep-18 11:30N 39°52' W 075°14'0 0.0
2017-Sep-18 11:00N 39°52' W 075°14'0 0.0
2017-Sep-18 10:30N 39°52' W 075°14'0 0.0
2017-Sep-18 10:00N 39°52' W 075°14'0 0.0
2017-Sep-18 09:30N 39°52' W 075°14'0 0.0
2017-Sep-18 09:00N 39°52' W 075°14'0 0.0
2017-Sep-18 08:30N 39°52' W 075°14'0 0.0
2017-Sep-18 08:00N 39°52' W 075°14'0 0.1
2017-Sep-18 07:30N 39°52' W 075°14'0 0.1
2017-Sep-18 07:00N 39°52' W 075°14'0 0.1
2017-Sep-18 06:30N 39°52' W 075°14'0 0.0
2017-Sep-18 06:00N 39°52' W 075°14'0 0.4
2017-Sep-18 05:30N 39°52' W 075°14'0 0.2
2017-Sep-18 05:00N 39°52' W 075°13'0 0.0
2017-Sep-18 04:30N 39°52' W 075°13'0 0.0
2017-Sep-18 04:00N 39°52' W 075°13'0 0.0
2017-Sep-18 03:30N 39°52' W 075°13'0 0.0
2017-Sep-18 03:00N 39°52' W 075°13'0 0.1
2017-Sep-18 02:30N 39°52' W 075°13'0 0.0
2017-Sep-18 02:00N 39°52' W 075°13'0 0.0
2017-Sep-18 01:30N 39°52' W 075°13'0 0.0
2017-Sep-18 01:00N 39°52' W 075°13'0 0.0
2017-Sep-18 00:30N 39°52' W 075°13'0 0.0
2017-Sep-18 00:00N 39°52' W 075°13'0 0.4
2017-Sep-17 23:30N 39°52' W 075°14'0 0.2
2017-Sep-17 23:00N 39°52' W 075°14'0 0.0
2017-Sep-17 22:30N 39°52' W 075°14'0 0.0
2017-Sep-17 22:00N 39°52' W 075°14'0 0.0
2017-Sep-17 21:30N 39°52' W 075°14'0 0.0
2017-Sep-17 21:00N 39°52' W 075°14'0 0.0
2017-Sep-17 20:30N 39°52' W 075°14'0 0.0
2017-Sep-17 20:00N 39°52' W 075°14'0 0.0
2017-Sep-17 19:30N 39°52' W 075°14'0 0.0
2017-Sep-17 19:00N 39°52' W 075°14'0 0.0
2017-Sep-17 18:30N 39°52' W 075°14'0 0.0
2017-Sep-17 18:00N 39°52' W 075°14'0 0.0
2017-Sep-17 17:30N 39°52' W 075°14'0 0.4
2017-Sep-17 17:00N 39°52' W 075°13'0 0.1
2017-Sep-17 16:30N 39°52' W 075°13'0 0.0
2017-Sep-17 16:00N 39°52' W 075°13'0 0.0
2017-Sep-17 15:30N 39°52' W 075°13'0 0.0
2017-Sep-17 15:00N 39°52' W 075°13'0 0.0
2017-Sep-17 14:30N 39°52' W 075°13'0 0.0
2017-Sep-17 14:00N 39°52' W 075°13'0 0.0
2017-Sep-17 13:30N 39°52' W 075°13'0 0.0
2017-Sep-17 13:00N 39°52' W 075°13'0 0.0
2017-Sep-17 12:30N 39°52' W 075°13'0 0.0
2017-Sep-17 12:00N 39°52' W 075°13'0 0.4
2017-Sep-17 11:30N 39°52' W 075°14'0 0.2
2017-Sep-17 11:00N 39°52' W 075°14'0 0.1
2017-Sep-17 10:30N 39°52' W 075°14'0 0.0
2017-Sep-17 10:00N 39°52' W 075°14'0 0.0
2017-Sep-17 09:30N 39°52' W 075°14'0 0.0
2017-Sep-17 09:00N 39°52' W 075°14'0 0.0
2017-Sep-17 08:30N 39°52' W 075°14'0 0.0
2017-Sep-17 08:00N 39°52' W 075°14'0 0.0
2017-Sep-17 07:27N 39°52' W 075°14'0 0.0
2017-Sep-17 07:00N 39°52' W 075°14'0 0.0
2017-Sep-17 06:30N 39°52' W 075°14'0 0.0
2017-Sep-17 06:00N 39°52' W 075°14'0 0.0
2017-Sep-17 05:30N 39°52' W 075°14'0 0.1
2017-Sep-17 05:00N 39°52' W 075°14'0 0.4
2017-Sep-17 04:30N 39°52' W 075°13'0 0.1
2017-Sep-17 04:00N 39°52' W 075°13'0 0.0
2017-Sep-17 03:30N 39°52' W 075°13'0 0.0
2017-Sep-17 03:00N 39°52' W 075°13'0 0.0
2017-Sep-17 02:30N 39°52' W 075°13'0 0.0
2017-Sep-17 02:00N 39°52' W 075°13'0 0.0
2017-Sep-17 01:30N 39°52' W 075°13'0 0.0
2017-Sep-17 01:00N 39°52' W 075°13'0 0.0
2017-Sep-17 00:30N 39°52' W 075°13'0 0.0
2017-Sep-17 00:00N 39°52' W 075°13'0 0.1
2017-Sep-16 23:30N 39°52' W 075°13'0 0.2
2017-Sep-16 23:00N 39°52' W 075°13'0 0.3
2017-Sep-16 22:30N 39°52' W 075°13'0 0.4
2017-Sep-16 22:00N 39°52' W 075°14'0 0.1
2017-Sep-16 21:30N 39°52' W 075°14'0 0.0
2017-Sep-16 21:00N 39°52' W 075°14'0 0.0
2017-Sep-16 20:30N 39°52' W 075°14'0 0.0
2017-Sep-16 19:57N 39°52' W 075°14'0 0.0
2017-Sep-16 19:30N 39°52' W 075°14'0 0.0
2017-Sep-16 19:00N 39°52' W 075°14'0 0.0
2017-Sep-16 18:30N 39°52' W 075°14'0 0.0
2017-Sep-16 18:00N 39°52' W 075°14'0 0.0
2017-Sep-16 17:30N 39°52' W 075°14'0 0.1
2017-Sep-16 17:00N 39°52' W 075°14'1 1.2
2017-Sep-16 16:31N 39°51' W 075°14'3 5.8
2017-Sep-16 16:01N 39°51' W 075°18'4 8.5
2017-Sep-16 15:31N 39°49' W 075°23'4 8.8
2017-Sep-16 15:01N 39°47' W 075°28'5 9.9
2017-Sep-16 14:30N 39°42' W 075°31'611.2
2017-Sep-16 14:01N 39°38' W 075°35'4 8.5
2017-Sep-16 13:31N 39°34' W 075°33'2 4.8
2017-Sep-16 13:01N 39°35' W 075°35'0 0.5
2017-Sep-16 12:30N 39°35' W 075°35'0 0.0
2017-Sep-16 11:59N 39°35' W 075°35'0 0.0
2017-Sep-16 11:29N 39°35' W 075°35'0 0.0
2017-Sep-16 10:59N 39°35' W 075°35'0 0.0
2017-Sep-16 10:29N 39°35' W 075°35'0 0.0
2017-Sep-16 09:59N 39°35' W 075°35'0 0.0
2017-Sep-16 09:29N 39°35' W 075°35'0 0.0
2017-Sep-16 09:00N 39°35' W 075°35'0 0.0
2017-Sep-16 08:29N 39°35' W 075°35'0 0.0
2017-Sep-16 07:59N 39°35' W 075°35'0 0.0
2017-Sep-16 07:29N 39°35' W 075°35'0 0.0
2017-Sep-16 06:59N 39°35' W 075°35'0 0.0
2017-Sep-16 06:29N 39°35' W 075°35'0 0.0
2017-Sep-16 05:59N 39°35' W 075°35'0 0.0
2017-Sep-16 05:29N 39°35' W 075°35'0 0.0
2017-Sep-16 04:59N 39°35' W 075°35'0 0.0
2017-Sep-16 04:29N 39°35' W 075°35'0 0.0
2017-Sep-16 03:59N 39°35' W 075°35'0 0.0
2017-Sep-16 03:29N 39°35' W 075°35'0 0.0
2017-Sep-16 02:56N 39°35' W 075°35'0 0.0
2017-Sep-16 02:29N 39°35' W 075°35'0 0.0
2017-Sep-16 01:59N 39°35' W 075°35'0 0.0
2017-Sep-16 01:29N 39°35' W 075°35'0 0.0
2017-Sep-16 00:59N 39°35' W 075°35'0 0.0
2017-Sep-16 00:29N 39°35' W 075°35'0 0.0
2017-Sep-16 00:00N 39°35' W 075°35'0 0.0
2017-Sep-15 23:29N 39°35' W 075°35'0 0.0
2017-Sep-15 22:59N 39°35' W 075°35'0 0.0
2017-Sep-15 22:29N 39°35' W 075°35'0 0.0
2017-Sep-15 21:59N 39°35' W 075°35'0 0.0
2017-Sep-15 21:30N 39°35' W 075°35'0 0.0
2017-Sep-15 20:59N 39°35' W 075°35'0 0.0
2017-Sep-15 20:30N 39°35' W 075°35'0 0.0
2017-Sep-15 20:00N 39°35' W 075°35'0 0.0
2017-Sep-15 19:29N 39°35' W 075°35'0 0.0
2017-Sep-15 19:00N 39°35' W 075°35'0 0.0
2017-Sep-15 18:29N 39°35' W 075°35'0 0.0
2017-Sep-15 17:57N 39°35' W 075°35'0 0.0
2017-Sep-15 17:30N 39°35' W 075°35'0 0.0
2017-Sep-15 17:00N 39°35' W 075°35'0 0.0
2017-Sep-15 16:29N 39°35' W 075°35'0 0.0
2017-Sep-15 16:00N 39°35' W 075°35'0 0.0
2017-Sep-15 15:30N 39°35' W 075°35'0 0.0
2017-Sep-15 14:59N 39°35' W 075°35'0 0.0
2017-Sep-15 14:30N 39°35' W 075°35'0 0.0
2017-Sep-15 14:00N 39°35' W 075°35'0 0.0
2017-Sep-15 13:30N 39°35' W 075°35'0 0.0
2017-Sep-15 12:59N 39°35' W 075°35'0 0.0
2017-Sep-15 12:30N 39°35' W 075°35'0 0.0
2017-Sep-15 11:59N 39°35' W 075°35'0 0.0
2017-Sep-15 11:30N 39°35' W 075°35'0 0.0
2017-Sep-15 10:59N 39°35' W 075°35'0 0.0
2017-Sep-15 10:29N 39°35' W 075°35'0 0.0
2017-Sep-15 09:59N 39°35' W 075°35'0 0.0
2017-Sep-15 09:29N 39°35' W 075°35'0 0.0
2017-Sep-15 08:59N 39°35' W 075°35'0 0.0
2017-Sep-15 08:29N 39°35' W 075°35'0 0.0
2017-Sep-15 07:59N 39°35' W 075°35'0 0.0
2017-Sep-15 07:29N 39°35' W 075°35'0 0.0
2017-Sep-15 06:59N 39°35' W 075°35'0 0.0
2017-Sep-15 06:29N 39°35' W 075°35'0 0.0
2017-Sep-15 05:59N 39°35' W 075°35'0 0.0
2017-Sep-15 05:29N 39°35' W 075°35'0 0.0
2017-Sep-15 04:59N 39°35' W 075°35'0 0.0
2017-Sep-15 04:29N 39°35' W 075°35'0 0.0
2017-Sep-15 03:59N 39°35' W 075°35'0 0.0
2017-Sep-15 03:29N 39°35' W 075°35'0 0.0
2017-Sep-15 03:00N 39°35' W 075°35'0 0.0
2017-Sep-15 02:29N 39°35' W 075°35'0 0.0
2017-Sep-15 02:00N 39°35' W 075°35'0 0.0
2017-Sep-15 01:30N 39°35' W 075°35'0 0.0
2017-Sep-15 01:00N 39°35' W 075°35'0 0.0
2017-Sep-15 00:30N 39°35' W 075°35'0 0.0
2017-Sep-14 23:59N 39°35' W 075°35'0 0.0
2017-Sep-14 23:29N 39°35' W 075°35'0 0.0
2017-Sep-14 23:00N 39°35' W 075°35'0 0.0
2017-Sep-14 22:29N 39°35' W 075°35'0 0.0
2017-Sep-14 22:00N 39°35' W 075°35'0 0.0
2017-Sep-14 21:30N 39°35' W 075°35'0 0.0
2017-Sep-14 20:59N 39°35' W 075°35'0 0.0
2017-Sep-14 20:29N 39°35' W 075°35'0 0.0
2017-Sep-14 20:00N 39°35' W 075°35'0 0.0
2017-Sep-14 19:30N 39°35' W 075°35'0 0.0
2017-Sep-14 19:00N 39°35' W 075°35'0 0.0
2017-Sep-14 18:27N 39°35' W 075°35'0 0.0
2017-Sep-14 18:00N 39°35' W 075°35'0 0.0
2017-Sep-14 17:29N 39°35' W 075°35'0 0.0
2017-Sep-14 17:00N 39°35' W 075°35'0 0.0
2017-Sep-14 16:29N 39°35' W 075°35'0 0.0
2017-Sep-14 15:59N 39°35' W 075°35'0 0.0
2017-Sep-14 15:30N 39°35' W 075°35'0 0.0
2017-Sep-14 15:00N 39°35' W 075°35'0 0.0
2017-Sep-14 14:29N 39°35' W 075°35'0 0.0
2017-Sep-14 13:59N 39°35' W 075°35'0 0.0
2017-Sep-14 13:29N 39°35' W 075°35'0 0.0
2017-Sep-14 12:59N 39°35' W 075°35'0 0.0
2017-Sep-14 12:29N 39°35' W 075°35'0 0.0
2017-Sep-14 11:59N 39°35' W 075°35'0 0.0
2017-Sep-14 11:29N 39°35' W 075°35'0 0.0
2017-Sep-14 10:59N 39°35' W 075°35'0 0.0
2017-Sep-14 10:29N 39°35' W 075°35'0 0.0
2017-Sep-14 09:59N 39°35' W 075°35'0 0.0
2017-Sep-14 09:29N 39°35' W 075°35'0 0.0
2017-Sep-14 08:59N 39°35' W 075°35'0 0.0
2017-Sep-14 08:29N 39°35' W 075°35'0 0.0
2017-Sep-14 07:59N 39°35' W 075°35'0 0.0
2017-Sep-14 07:29N 39°35' W 075°35'0 0.0
2017-Sep-14 06:59N 39°35' W 075°35'0 0.0
2017-Sep-14 06:26N 39°35' W 075°35'0 0.0
2017-Sep-14 05:59N 39°35' W 075°35'0 0.0
2017-Sep-14 05:29N 39°35' W 075°35'0 0.0
2017-Sep-14 04:59N 39°35' W 075°35'0 0.0
2017-Sep-14 04:29N 39°35' W 075°35'0 0.0
2017-Sep-14 03:59N 39°35' W 075°35'0 0.0
2017-Sep-14 03:29N 39°35' W 075°35'0 0.0
2017-Sep-14 02:59N 39°35' W 075°35'0 0.0
2017-Sep-14 02:29N 39°35' W 075°35'0 0.0
2017-Sep-14 01:59N 39°35' W 075°35'0 0.0
2017-Sep-14 01:29N 39°35' W 075°35'0 0.0
2017-Sep-14 00:59N 39°35' W 075°35'0 0.0
2017-Sep-14 00:29N 39°35' W 075°35'0 0.1
2017-Sep-14 00:00N 39°35' W 075°35'2 3.1
2017-Sep-13 23:30N 39°34' W 075°34'1 1.1
2017-Sep-13 23:00N 39°35' W 075°33'3 5.2
2017-Sep-13 22:30N 39°37' W 075°35'2 4.6
2017-Sep-13 22:00N 39°39' W 075°33'4 7.5
2017-Sep-13 21:31N 39°42' W 075°31'5 9.8
2017-Sep-13 21:00N 39°47' W 075°28'3 5.8
2017-Sep-13 20:30N 39°48' W 075°25'1 1.8
2017-Sep-13 20:00N 39°49' W 075°24'0 0.0
2017-Sep-13 19:30N 39°49' W 075°24'0 0.2
2017-Sep-13 19:00N 39°48' W 075°24'0 0.4
2017-Sep-13 18:30N 39°48' W 075°24'0 0.1
2017-Sep-13 18:00N 39°48' W 075°24'0 0.1
2017-Sep-13 17:30N 39°48' W 075°24'0 0.1
2017-Sep-13 17:00N 39°48' W 075°24'0 0.0
2017-Sep-13 16:30N 39°48' W 075°24'0 0.0
2017-Sep-13 15:57N 39°48' W 075°24'0 0.0
2017-Sep-13 15:30N 39°48' W 075°24'0 0.1
2017-Sep-13 15:00N 39°48' W 075°24'0 0.0
2017-Sep-13 14:30N 39°48' W 075°24'0 0.0
2017-Sep-13 14:00N 39°48' W 075°24'0 0.0
2017-Sep-13 13:30N 39°48' W 075°24'0 0.0
2017-Sep-13 13:00N 39°48' W 075°24'0 0.5
2017-Sep-13 12:30N 39°49' W 075°24'0 0.1
2017-Sep-13 12:00N 39°49' W 075°24'0 0.1
2017-Sep-13 11:30N 39°49' W 075°24'0 0.0
2017-Sep-13 11:00N 39°49' W 075°24'0 0.0
2017-Sep-13 10:30N 39°49' W 075°24'0 0.0
2017-Sep-13 09:57N 39°49' W 075°24'0 0.0
2017-Sep-13 09:30N 39°49' W 075°24'0 0.0
2017-Sep-13 09:00N 39°49' W 075°24'0 0.9
2017-Sep-13 08:30N 39°48' W 075°24'3 6.0
2017-Sep-13 08:01N 39°47' W 075°28'511.0
2017-Sep-13 07:30N 39°42' W 075°31'713.3
2017-Sep-13 07:01N 39°36' W 075°34'612.2
2017-Sep-13 06:30N 39°30' W 075°34'714.1
2017-Sep-13 06:01N 39°23' W 075°29'714.9
2017-Sep-13 05:30N 39°18' W 075°23'714.6
2017-Sep-13 05:01N 39°12' W 075°17'815.0
2017-Sep-13 04:31N 39°06' W 075°12'815.2
2017-Sep-13 04:00N 38°59' W 075°08'815.3
2017-Sep-13 03:31N 38°52' W 075°04'611.8
2017-Sep-13 03:01N 38°47' W 075°01'4 7.7
2017-Sep-13 02:31N 38°45' W 074°56'5 9.7
2017-Sep-13 02:01N 38°41' W 074°53'4 8.2
2017-Sep-13 01:31N 38°38' W 074°50'5 9.7
2017-Sep-13 01:01N 38°34' W 074°46'4 8.5
2017-Sep-13 00:30N 38°30' W 074°42'5 9.3
2017-Sep-13 00:01N 38°29' W 074°37'1 0.9
2017-Sep-12 23:26N 38°29' W 074°36'0 0.1
2017-Sep-12 22:59N 38°29' W 074°36'0 0.0
2017-Sep-12 22:29N 38°29' W 074°36'0 0.0
2017-Sep-12 21:59N 38°29' W 074°36'0 0.0
2017-Sep-12 21:23N 38°29' W 074°36'0 0.0
2017-Sep-12 20:59N 38°29' W 074°36'0 0.0
2017-Sep-12 20:26N 38°29' W 074°36'0 0.0
2017-Sep-12 19:38N 38°29' W 074°36'0 0.0
2017-Sep-12 19:29N 38°29' W 074°36'0 0.0
2017-Sep-12 18:59N 38°29' W 074°36'0 0.0
2017-Sep-12 18:29N 38°29' W 074°36'0 0.0
2017-Sep-12 17:56N 38°29' W 074°36'0 0.0
2017-Sep-12 17:11N 38°29' W 074°36'0 0.0
2017-Sep-12 16:59N 38°29' W 074°36'0 0.0
2017-Sep-12 16:29N 38°29' W 074°36'0 0.0
2017-Sep-12 15:56N 38°29' W 074°36'0 0.0
2017-Sep-12 15:29N 38°29' W 074°36'0 0.0
2017-Sep-12 14:59N 38°29' W 074°36'0 0.0
2017-Sep-12 14:05N 38°29' W 074°36'0 0.1
2017-Sep-12 13:59N 38°29' W 074°36'0 0.0
2017-Sep-12 13:29N 38°29' W 074°36'0 0.0
2017-Sep-12 12:59N 38°29' W 074°36'0 0.0
2017-Sep-12 09:14N 38°29' W 074°36'0 0.0
2017-Sep-12 08:59N 38°29' W 074°36'0 0.0
2017-Sep-12 08:23N 38°29' W 074°36'0 0.1
2017-Sep-12 07:59N 38°29' W 074°36'0 0.0
2017-Sep-12 07:20N 38°29' W 074°36'0 0.1
2017-Sep-12 06:59N 38°29' W 074°36'0 0.0
2017-Sep-12 06:29N 38°29' W 074°36'0 0.0
2017-Sep-12 05:02N 38°29' W 074°36'0 0.0
2017-Sep-12 04:44N 38°29' W 074°36'0 0.0
2017-Sep-12 04:29N 38°29' W 074°36'0 0.0
2017-Sep-12 03:56N 38°29' W 074°36'0 0.0
2017-Sep-12 02:50N 38°29' W 074°36'0 0.1
2017-Sep-12 02:23N 38°29' W 074°36'0 0.0
2017-Sep-12 01:53N 38°29' W 074°36'0 0.0
2017-Sep-12 01:29N 38°29' W 074°36'0 0.0
2017-Sep-11 22:50N 38°29' W 074°36'0 0.0
2017-Sep-11 22:11N 38°29' W 074°36'0 0.0
2017-Sep-11 21:56N 38°29' W 074°36'0 0.0
2017-Sep-11 21:26N 38°29' W 074°36'0 0.0
2017-Sep-11 20:56N 38°29' W 074°36'0 0.0
2017-Sep-11 20:23N 38°29' W 074°36'0 0.0
2017-Sep-11 06:53N 38°29' W 074°36'  
Track history (hours):
 
Tides and Currents Weather Stations Pressure Air Temp Water Temp Dewpoint Dewpoint Depression Visibility Wind Speed Wind Dir Waves Ship Positions

Hellespont Progress

Last reported at 2017-Sep-19 18:19 UTC. Time now 2017-Sep-19 18:37 UTC.
Position N 38°44' W 074°59'.

Length 228 m; draft 11.3 m.

Type: Tanker. MMSI: 538090209.

Date/timePositionNaut miles runAvg speedWind from/ knotsBaromVisibWave heightAir tempDewpointWater temp
2017-Sep-19 18:19N 38°44' W 074°59'4 9.9
2017-Sep-19 17:56N 38°47' W 075°03'610.1
2017-Sep-19 17:19N 38°53' W 075°05'413.0
2017-Sep-19 17:00N 38°57' W 075°07'612.5
2017-Sep-19 16:30N 39°02' W 075°10'510.7
2017-Sep-19 16:00N 39°07' W 075°13'611.1
2017-Sep-19 15:30N 39°12' W 075°17'510.3
2017-Sep-19 15:00N 39°16' W 075°20'5 9.7
2017-Sep-19 14:30N 39°20' W 075°25'5 9.3
2017-Sep-19 14:00N 39°23' W 075°29'5 9.0
2017-Sep-19 13:30N 39°26' W 075°32'4 8.2
2017-Sep-19 13:00N 39°30' W 075°33'4 8.4
2017-Sep-19 12:30N 39°35' W 075°33'4 7.6
2017-Sep-19 12:01N 39°38' W 075°34'4 8.5
2017-Sep-19 11:30N 39°42' W 075°31'4 8.7
2017-Sep-19 11:01N 39°46' W 075°29'4 7.0
2017-Sep-19 10:31N 39°48' W 075°25'1 2.6
2017-Sep-19 09:59N 39°49' W 075°24'0 0.1
2017-Sep-19 09:29N 39°49' W 075°24'0 0.0
2017-Sep-19 08:59N 39°49' W 075°24'0 0.0
2017-Sep-19 08:29N 39°49' W 075°24'0 0.1
2017-Sep-19 07:59N 39°49' W 075°24'0 0.0
2017-Sep-19 07:29N 39°49' W 075°24'0 0.1
2017-Sep-19 06:59N 39°49' W 075°24'0 0.1
2017-Sep-19 06:26N 39°49' W 075°24'0 0.3
2017-Sep-19 05:59N 39°49' W 075°24'0 0.4
2017-Sep-19 05:29N 39°49' W 075°23'0 0.1
2017-Sep-19 04:59N 39°49' W 075°23'0 0.0
2017-Sep-19 04:29N 39°49' W 075°23'0 0.0
2017-Sep-19 03:59N 39°49' W 075°23'0 0.0
2017-Sep-19 03:29N 39°49' W 075°23'0 0.0
2017-Sep-19 02:59N 39°49' W 075°23'0 0.0
2017-Sep-19 02:29N 39°49' W 075°23'0 0.0
2017-Sep-19 01:59N 39°49' W 075°23'0 0.1
2017-Sep-19 01:29N 39°49' W 075°23'0 0.0
2017-Sep-19 00:59N 39°49' W 075°23'0 0.3
2017-Sep-19 00:29N 39°49' W 075°24'0 0.4
2017-Sep-18 23:59N 39°49' W 075°24'0 0.2
2017-Sep-18 23:29N 39°49' W 075°24'0 0.0
2017-Sep-18 22:59N 39°49' W 075°24'0 0.8
2017-Sep-18 22:30N 39°49' W 075°23'4 7.8
2017-Sep-18 22:01N 39°51' W 075°19'4 8.1
2017-Sep-18 21:31N 39°52' W 075°14'0 0.1
2017-Sep-18 21:00N 39°52' W 075°14'0 0.0
2017-Sep-18 20:30N 39°52' W 075°14'0 0.0
2017-Sep-18 20:00N 39°52' W 075°14'0 0.0
2017-Sep-18 19:30N 39°52' W 075°14'0 0.0
2017-Sep-18 19:00N 39°52' W 075°14'0 0.1
2017-Sep-18 18:30N 39°52' W 075°14'0 0.5
2017-Sep-18 18:00N 39°52' W 075°13'0 0.1
2017-Sep-18 17:30N 39°52' W 075°13'0 0.0
2017-Sep-18 17:00N 39°52' W 075°13'0 0.0
2017-Sep-18 16:30N 39°52' W 075°13'0 0.0
2017-Sep-18 16:00N 39°52' W 075°13'0 0.1
2017-Sep-18 15:30N 39°52' W 075°13'0 0.0
2017-Sep-18 15:00N 39°52' W 075°13'0 0.0
2017-Sep-18 14:30N 39°52' W 075°13'0 0.0
2017-Sep-18 14:00N 39°52' W 075°13'0 0.0
2017-Sep-18 13:30N 39°52' W 075°13'0 0.2
2017-Sep-18 13:00N 39°52' W 075°13'0 0.5
2017-Sep-18 12:30N 39°51' W 075°14'0 0.1
2017-Sep-18 12:00N 39°52' W 075°14'0 0.1
2017-Sep-18 11:30N 39°52' W 075°14'0 0.0
2017-Sep-18 11:00N 39°52' W 075°14'0 0.0
2017-Sep-18 10:30N 39°52' W 075°14'0 0.0
2017-Sep-18 10:00N 39°52' W 075°14'0 0.0
2017-Sep-18 09:30N 39°52' W 075°14'0 0.0
2017-Sep-18 09:00N 39°52' W 075°14'0 0.0
2017-Sep-18 08:30N 39°52' W 075°14'0 0.0
2017-Sep-18 08:00N 39°52' W 075°14'0 0.1
2017-Sep-18 07:30N 39°52' W 075°14'0 0.1
2017-Sep-18 07:00N 39°52' W 075°14'0 0.1
2017-Sep-18 06:30N 39°52' W 075°14'0 0.0
2017-Sep-18 06:00N 39°52' W 075°14'0 0.4
2017-Sep-18 05:30N 39°52' W 075°14'0 0.2
2017-Sep-18 05:00N 39°52' W 075°13'0 0.0
2017-Sep-18 04:30N 39°52' W 075°13'0 0.0
2017-Sep-18 04:00N 39°52' W 075°13'0 0.0
2017-Sep-18 03:30N 39°52' W 075°13'0 0.0
2017-Sep-18 03:00N 39°52' W 075°13'0 0.1
2017-Sep-18 02:30N 39°52' W 075°13'0 0.0
2017-Sep-18 02:00N 39°52' W 075°13'0 0.0
2017-Sep-18 01:30N 39°52' W 075°13'0 0.0
2017-Sep-18 01:00N 39°52' W 075°13'0 0.0
2017-Sep-18 00:30N 39°52' W 075°13'0 0.0
2017-Sep-18 00:00N 39°52' W 075°13'0 0.4
2017-Sep-17 23:30N 39°52' W 075°14'0 0.2
2017-Sep-17 23:00N 39°52' W 075°14'0 0.0
2017-Sep-17 22:30N 39°52' W 075°14'0 0.0
2017-Sep-17 22:00N 39°52' W 075°14'0 0.0
2017-Sep-17 21:30N 39°52' W 075°14'0 0.0
2017-Sep-17 21:00N 39°52' W 075°14'0 0.0
2017-Sep-17 20:30N 39°52' W 075°14'0 0.0
2017-Sep-17 20:00N 39°52' W 075°14'0 0.0
2017-Sep-17 19:30N 39°52' W 075°14'0 0.0
2017-Sep-17 19:00N 39°52' W 075°14'0 0.0
2017-Sep-17 18:30N 39°52' W 075°14'0 0.0
2017-Sep-17 18:00N 39°52' W 075°14'0 0.0
2017-Sep-17 17:30N 39°52' W 075°14'0 0.4
2017-Sep-17 17:00N 39°52' W 075°13'0 0.1
2017-Sep-17 16:30N 39°52' W 075°13'0 0.0
2017-Sep-17 16:00N 39°52' W 075°13'0 0.0
2017-Sep-17 15:30N 39°52' W 075°13'0 0.0
2017-Sep-17 15:00N 39°52' W 075°13'0 0.0
2017-Sep-17 14:30N 39°52' W 075°13'0 0.0
2017-Sep-17 14:00N 39°52' W 075°13'0 0.0
2017-Sep-17 13:30N 39°52' W 075°13'0 0.0
2017-Sep-17 13:00N 39°52' W 075°13'0 0.0
2017-Sep-17 12:30N 39°52' W 075°13'0 0.0
2017-Sep-17 12:00N 39°52' W 075°13'0 0.4
2017-Sep-17 11:30N 39°52' W 075°14'0 0.2
2017-Sep-17 11:00N 39°52' W 075°14'0 0.1
2017-Sep-17 10:30N 39°52' W 075°14'0 0.0
2017-Sep-17 10:00N 39°52' W 075°14'0 0.0
2017-Sep-17 09:30N 39°52' W 075°14'0 0.0
2017-Sep-17 09:00N 39°52' W 075°14'0 0.0
2017-Sep-17 08:30N 39°52' W 075°14'0 0.0
2017-Sep-17 08:00N 39°52' W 075°14'0 0.0
2017-Sep-17 07:27N 39°52' W 075°14'0 0.0
2017-Sep-17 07:00N 39°52' W 075°14'0 0.0
2017-Sep-17 06:30N 39°52' W 075°14'0 0.0
2017-Sep-17 06:00N 39°52' W 075°14'0 0.0
2017-Sep-17 05:30N 39°52' W 075°14'0 0.1
2017-Sep-17 05:00N 39°52' W 075°14'0 0.4
2017-Sep-17 04:30N 39°52' W 075°13'0 0.1
2017-Sep-17 04:00N 39°52' W 075°13'0 0.0
2017-Sep-17 03:30N 39°52' W 075°13'0 0.0
2017-Sep-17 03:00N 39°52' W 075°13'0 0.0
2017-Sep-17 02:30N 39°52' W 075°13'0 0.0
2017-Sep-17 02:00N 39°52' W 075°13'0 0.0
2017-Sep-17 01:30N 39°52' W 075°13'0 0.0
2017-Sep-17 01:00N 39°52' W 075°13'0 0.0
2017-Sep-17 00:30N 39°52' W 075°13'0 0.0
2017-Sep-17 00:00N 39°52' W 075°13'0 0.1
2017-Sep-16 23:30N 39°52' W 075°13'0 0.2
2017-Sep-16 23:00N 39°52' W 075°13'0 0.3
2017-Sep-16 22:30N 39°52' W 075°13'0 0.4
2017-Sep-16 22:00N 39°52' W 075°14'0 0.1
2017-Sep-16 21:30N 39°52' W 075°14'0 0.0
2017-Sep-16 21:00N 39°52' W 075°14'0 0.0
2017-Sep-16 20:30N 39°52' W 075°14'0 0.0
2017-Sep-16 19:57N 39°52' W 075°14'0 0.0
2017-Sep-16 19:30N 39°52' W 075°14'0 0.0
2017-Sep-16 19:00N 39°52' W 075°14'0 0.0
2017-Sep-16 18:30N 39°52' W 075°14'0 0.0
2017-Sep-16 18:00N 39°52' W 075°14'0 0.0
2017-Sep-16 17:30N 39°52' W 075°14'0 0.1
2017-Sep-16 17:00N 39°52' W 075°14'1 1.2
2017-Sep-16 16:31N 39°51' W 075°14'3 5.8
2017-Sep-16 16:01N 39°51' W 075°18'4 8.5
2017-Sep-16 15:31N 39°49' W 075°23'4 8.8
2017-Sep-16 15:01N 39°47' W 075°28'5 9.9
2017-Sep-16 14:30N 39°42' W 075°31'611.2
2017-Sep-16 14:01N 39°38' W 075°35'4 8.5
2017-Sep-16 13:31N 39°34' W 075°33'2 4.8
2017-Sep-16 13:01N 39°35' W 075°35'0 0.5
2017-Sep-16 12:30N 39°35' W 075°35'0 0.0
2017-Sep-16 11:59N 39°35' W 075°35'0 0.0
2017-Sep-16 11:29N 39°35' W 075°35'0 0.0
2017-Sep-16 10:59N 39°35' W 075°35'0 0.0
2017-Sep-16 10:29N 39°35' W 075°35'0 0.0
2017-Sep-16 09:59N 39°35' W 075°35'0 0.0
2017-Sep-16 09:29N 39°35' W 075°35'0 0.0
2017-Sep-16 09:00N 39°35' W 075°35'0 0.0
2017-Sep-16 08:29N 39°35' W 075°35'0 0.0
2017-Sep-16 07:59N 39°35' W 075°35'0 0.0
2017-Sep-16 07:29N 39°35' W 075°35'0 0.0
2017-Sep-16 06:59N 39°35' W 075°35'0 0.0
2017-Sep-16 06:29N 39°35' W 075°35'0 0.0
2017-Sep-16 05:59N 39°35' W 075°35'0 0.0
2017-Sep-16 05:29N 39°35' W 075°35'0 0.0
2017-Sep-16 04:59N 39°35' W 075°35'0 0.0
2017-Sep-16 04:29N 39°35' W 075°35'0 0.0
2017-Sep-16 03:59N 39°35' W 075°35'0 0.0
2017-Sep-16 03:29N 39°35' W 075°35'0 0.0
2017-Sep-16 02:56N 39°35' W 075°35'0 0.0
2017-Sep-16 02:29N 39°35' W 075°35'0 0.0
2017-Sep-16 01:59N 39°35' W 075°35'0 0.0
2017-Sep-16 01:29N 39°35' W 075°35'0 0.0
2017-Sep-16 00:59N 39°35' W 075°35'0 0.0
2017-Sep-16 00:29N 39°35' W 075°35'0 0.0
2017-Sep-16 00:00N 39°35' W 075°35'0 0.0
2017-Sep-15 23:29N 39°35' W 075°35'0 0.0
2017-Sep-15 22:59N 39°35' W 075°35'0 0.0
2017-Sep-15 22:29N 39°35' W 075°35'0 0.0
2017-Sep-15 21:59N 39°35' W 075°35'0 0.0
2017-Sep-15 21:30N 39°35' W 075°35'0 0.0
2017-Sep-15 20:59N 39°35' W 075°35'0 0.0
2017-Sep-15 20:30N 39°35' W 075°35'0 0.0
2017-Sep-15 20:00N 39°35' W 075°35'0 0.0
2017-Sep-15 19:29N 39°35' W 075°35'0 0.0
2017-Sep-15 19:00N 39°35' W 075°35'0 0.0
2017-Sep-15 18:29N 39°35' W 075°35'0 0.0
2017-Sep-15 17:57N 39°35' W 075°35'0 0.0
2017-Sep-15 17:30N 39°35' W 075°35'0 0.0
2017-Sep-15 17:00N 39°35' W 075°35'0 0.0
2017-Sep-15 16:29N 39°35' W 075°35'0 0.0
2017-Sep-15 16:00N 39°35' W 075°35'0 0.0
2017-Sep-15 15:30N 39°35' W 075°35'0 0.0
2017-Sep-15 14:59N 39°35' W 075°35'0 0.0
2017-Sep-15 14:30N 39°35' W 075°35'0 0.0
2017-Sep-15 14:00N 39°35' W 075°35'0 0.0
2017-Sep-15 13:30N 39°35' W 075°35'0 0.0
2017-Sep-15 12:59N 39°35' W 075°35'0 0.0
2017-Sep-15 12:30N 39°35' W 075°35'0 0.0
2017-Sep-15 11:59N 39°35' W 075°35'0 0.0
2017-Sep-15 11:30N 39°35' W 075°35'0 0.0
2017-Sep-15 10:59N 39°35' W 075°35'0 0.0
2017-Sep-15 10:29N 39°35' W 075°35'0 0.0
2017-Sep-15 09:59N 39°35' W 075°35'0 0.0
2017-Sep-15 09:29N 39°35' W 075°35'0 0.0
2017-Sep-15 08:59N 39°35' W 075°35'0 0.0
2017-Sep-15 08:29N 39°35' W 075°35'0 0.0
2017-Sep-15 07:59N 39°35' W 075°35'0 0.0
2017-Sep-15 07:29N 39°35' W 075°35'0 0.0
2017-Sep-15 06:59N 39°35' W 075°35'0 0.0
2017-Sep-15 06:29N 39°35' W 075°35'0 0.0
2017-Sep-15 05:59N 39°35' W 075°35'0 0.0
2017-Sep-15 05:29N 39°35' W 075°35'0 0.0
2017-Sep-15 04:59N 39°35' W 075°35'0 0.0
2017-Sep-15 04:29N 39°35' W 075°35'0 0.0
2017-Sep-15 03:59N 39°35' W 075°35'0 0.0
2017-Sep-15 03:29N 39°35' W 075°35'0 0.0
2017-Sep-15 03:00N 39°35' W 075°35'0 0.0
2017-Sep-15 02:29N 39°35' W 075°35'0 0.0
2017-Sep-15 02:00N 39°35' W 075°35'0 0.0
2017-Sep-15 01:30N 39°35' W 075°35'0 0.0
2017-Sep-15 01:00N 39°35' W 075°35'0 0.0
2017-Sep-15 00:30N 39°35' W 075°35'0 0.0
2017-Sep-14 23:59N 39°35' W 075°35'0 0.0
2017-Sep-14 23:29N 39°35' W 075°35'0 0.0
2017-Sep-14 23:00N 39°35' W 075°35'0 0.0
2017-Sep-14 22:29N 39°35' W 075°35'0 0.0
2017-Sep-14 22:00N 39°35' W 075°35'0 0.0
2017-Sep-14 21:30N 39°35' W 075°35'0 0.0
2017-Sep-14 20:59N 39°35' W 075°35'0 0.0
2017-Sep-14 20:29N 39°35' W 075°35'0 0.0
2017-Sep-14 20:00N 39°35' W 075°35'0 0.0
2017-Sep-14 19:30N 39°35' W 075°35'0 0.0
2017-Sep-14 19:00N 39°35' W 075°35'0 0.0
2017-Sep-14 18:27N 39°35' W 075°35'0 0.0
2017-Sep-14 18:00N 39°35' W 075°35'0 0.0
2017-Sep-14 17:29N 39°35' W 075°35'0 0.0
2017-Sep-14 17:00N 39°35' W 075°35'0 0.0
2017-Sep-14 16:29N 39°35' W 075°35'0 0.0
2017-Sep-14 15:59N 39°35' W 075°35'0 0.0
2017-Sep-14 15:30N 39°35' W 075°35'0 0.0
2017-Sep-14 15:00N 39°35' W 075°35'0 0.0
2017-Sep-14 14:29N 39°35' W 075°35'0 0.0
2017-Sep-14 13:59N 39°35' W 075°35'0 0.0
2017-Sep-14 13:29N 39°35' W 075°35'0 0.0
2017-Sep-14 12:59N 39°35' W 075°35'0 0.0
2017-Sep-14 12:29N 39°35' W 075°35'0 0.0
2017-Sep-14 11:59N 39°35' W 075°35'0 0.0
2017-Sep-14 11:29N 39°35' W 075°35'0 0.0
2017-Sep-14 10:59N 39°35' W 075°35'0 0.0
2017-Sep-14 10:29N 39°35' W 075°35'0 0.0
2017-Sep-14 09:59N 39°35' W 075°35'0 0.0
2017-Sep-14 09:29N 39°35' W 075°35'0 0.0
2017-Sep-14 08:59N 39°35' W 075°35'0 0.0
2017-Sep-14 08:29N 39°35' W 075°35'0 0.0
2017-Sep-14 07:59N 39°35' W 075°35'0 0.0
2017-Sep-14 07:29N 39°35' W 075°35'0 0.0
2017-Sep-14 06:59N 39°35' W 075°35'0 0.0
2017-Sep-14 06:26N 39°35' W 075°35'0 0.0
2017-Sep-14 05:59N 39°35' W 075°35'0 0.0
2017-Sep-14 05:29N 39°35' W 075°35'0 0.0
2017-Sep-14 04:59N 39°35' W 075°35'0 0.0
2017-Sep-14 04:29N 39°35' W 075°35'0 0.0
2017-Sep-14 03:59N 39°35' W 075°35'0 0.0
2017-Sep-14 03:29N 39°35' W 075°35'0 0.0
2017-Sep-14 02:59N 39°35' W 075°35'0 0.0
2017-Sep-14 02:29N 39°35' W 075°35'0 0.0
2017-Sep-14 01:59N 39°35' W 075°35'0 0.0
2017-Sep-14 01:29N 39°35' W 075°35'0 0.0
2017-Sep-14 00:59N 39°35' W 075°35'0 0.0
2017-Sep-14 00:29N 39°35' W 075°35'0 0.1
2017-Sep-14 00:00N 39°35' W 075°35'2 3.1
2017-Sep-13 23:30N 39°34' W 075°34'1 1.1
2017-Sep-13 23:00N 39°35' W 075°33'3 5.2
2017-Sep-13 22:30N 39°37' W 075°35'2 4.6
2017-Sep-13 22:00N 39°39' W 075°33'4 7.5
2017-Sep-13 21:31N 39°42' W 075°31'5 9.8
2017-Sep-13 21:00N 39°47' W 075°28'3 5.8
2017-Sep-13 20:30N 39°48' W 075°25'1 1.8
2017-Sep-13 20:00N 39°49' W 075°24'0 0.0
2017-Sep-13 19:30N 39°49' W 075°24'0 0.2
2017-Sep-13 19:00N 39°48' W 075°24'0 0.4
2017-Sep-13 18:30N 39°48' W 075°24'0 0.1
2017-Sep-13 18:00N 39°48' W 075°24'0 0.1
2017-Sep-13 17:30N 39°48' W 075°24'0 0.1
2017-Sep-13 17:00N 39°48' W 075°24'0 0.0
2017-Sep-13 16:30N 39°48' W 075°24'0 0.0
2017-Sep-13 15:57N 39°48' W 075°24'0 0.0
2017-Sep-13 15:30N 39°48' W 075°24'0 0.1
2017-Sep-13 15:00N 39°48' W 075°24'0 0.0
2017-Sep-13 14:30N 39°48' W 075°24'0 0.0
2017-Sep-13 14:00N 39°48' W 075°24'0 0.0
2017-Sep-13 13:30N 39°48' W 075°24'0 0.0
2017-Sep-13 13:00N 39°48' W 075°24'0 0.5
2017-Sep-13 12:30N 39°49' W 075°24'0 0.1
2017-Sep-13 12:00N 39°49' W 075°24'0 0.1
2017-Sep-13 11:30N 39°49' W 075°24'0 0.0
2017-Sep-13 11:00N 39°49' W 075°24'0 0.0
2017-Sep-13 10:30N 39°49' W 075°24'0 0.0
2017-Sep-13 09:57N 39°49' W 075°24'0 0.0
2017-Sep-13 09:30N 39°49' W 075°24'0 0.0
2017-Sep-13 09:00N 39°49' W 075°24'0 0.9
2017-Sep-13 08:30N 39°48' W 075°24'3 6.0
2017-Sep-13 08:01N 39°47' W 075°28'511.0
2017-Sep-13 07:30N 39°42' W 075°31'713.3
2017-Sep-13 07:01N 39°36' W 075°34'612.2
2017-Sep-13 06:30N 39°30' W 075°34'714.1
2017-Sep-13 06:01N 39°23' W 075°29'714.9
2017-Sep-13 05:30N 39°18' W 075°23'714.6
2017-Sep-13 05:01N 39°12' W 075°17'815.0
2017-Sep-13 04:31N 39°06' W 075°12'815.2
2017-Sep-13 04:00N 38°59' W 075°08'815.3
2017-Sep-13 03:31N 38°52' W 075°04'611.8
2017-Sep-13 03:01N 38°47' W 075°01'4 7.7
2017-Sep-13 02:31N 38°45' W 074°56'5 9.7
2017-Sep-13 02:01N 38°41' W 074°53'4 8.2
2017-Sep-13 01:31N 38°38' W 074°50'5 9.7
2017-Sep-13 01:01N 38°34' W 074°46'4 8.5
2017-Sep-13 00:30N 38°30' W 074°42'5 9.3
2017-Sep-13 00:01N 38°29' W 074°37'1 0.9
2017-Sep-12 23:26N 38°29' W 074°36'0 0.1
2017-Sep-12 22:59N 38°29' W 074°36'0 0.0
2017-Sep-12 22:29N 38°29' W 074°36'0 0.0
2017-Sep-12 21:59N 38°29' W 074°36'0 0.0
2017-Sep-12 21:23N 38°29' W 074°36'0 0.0
2017-Sep-12 20:59N 38°29' W 074°36'0 0.0
2017-Sep-12 20:26N 38°29' W 074°36'0 0.0
2017-Sep-12 19:38N 38°29' W 074°36'0 0.0
2017-Sep-12 19:29N 38°29' W 074°36'0 0.0
2017-Sep-12 18:59N 38°29' W 074°36'0 0.0
2017-Sep-12 18:29N 38°29' W 074°36'0 0.0
2017-Sep-12 17:56N 38°29' W 074°36'0 0.0
2017-Sep-12 17:11N 38°29' W 074°36'0 0.0
2017-Sep-12 16:59N 38°29' W 074°36'0 0.0
2017-Sep-12 16:29N 38°29' W 074°36'0 0.0
2017-Sep-12 15:56N 38°29' W 074°36'0 0.0
2017-Sep-12 15:29N 38°29' W 074°36'0 0.0
2017-Sep-12 14:59N 38°29' W 074°36'0 0.0
2017-Sep-12 14:05N 38°29' W 074°36'0 0.1
2017-Sep-12 13:59N 38°29' W 074°36'0 0.0
2017-Sep-12 13:29N 38°29' W 074°36'0 0.0
2017-Sep-12 12:59N 38°29' W 074°36'0 0.0
2017-Sep-12 09:14N 38°29' W 074°36'0 0.0
2017-Sep-12 08:59N 38°29' W 074°36'0 0.0
2017-Sep-12 08:23N 38°29' W 074°36'0 0.1
2017-Sep-12 07:59N 38°29' W 074°36'0 0.0
2017-Sep-12 07:20N 38°29' W 074°36'0 0.1
2017-Sep-12 06:59N 38°29' W 074°36'0 0.0
2017-Sep-12 06:29N 38°29' W 074°36'0 0.0
2017-Sep-12 05:02N 38°29' W 074°36'0 0.0
2017-Sep-12 04:44N 38°29' W 074°36'0 0.0
2017-Sep-12 04:29N 38°29' W 074°36'0 0.0
2017-Sep-12 03:56N 38°29' W 074°36'0 0.0
2017-Sep-12 02:50N 38°29' W 074°36'0 0.1
2017-Sep-12 02:23N 38°29' W 074°36'0 0.0
2017-Sep-12 01:53N 38°29' W 074°36'0 0.0
2017-Sep-12 01:29N 38°29' W 074°36'0 0.0
2017-Sep-11 22:50N 38°29' W 074°36'0 0.0
2017-Sep-11 22:11N 38°29' W 074°36'0 0.0
2017-Sep-11 21:56N 38°29' W 074°36'0 0.0
2017-Sep-11 21:26N 38°29' W 074°36'0 0.0
2017-Sep-11 20:56N 38°29' W 074°36'0 0.0
2017-Sep-11 20:23N 38°29' W 074°36'0 0.0
2017-Sep-11 06:53N 38°29' W 074°36'  

Dump ship's entire track history